sensor_id;sensor_type;location;lat;lon;timestamp;P1;durP1;ratioP1;P2;durP2;ratioP2
2522;SDS011;1272;53.332;9.860;2022-09-09T00:04:35;19.33;;;15.53;;
2522;SDS011;1272;53.332;9.860;2022-09-09T00:07:22;15.27;;;13.77;;
2522;SDS011;1272;53.332;9.860;2022-09-09T00:10:03;15.77;;;14.17;;
2522;SDS011;1272;53.332;9.860;2022-09-09T00:15:26;15.33;;;13.77;;
2522;SDS011;1272;53.332;9.860;2022-09-09T00:25:52;15.93;;;14.33;;
2522;SDS011;1272;53.332;9.860;2022-09-09T00:28:39;15.50;;;13.80;;
2522;SDS011;1272;53.332;9.860;2022-09-09T00:31:13;15.13;;;13.43;;
2522;SDS011;1272;53.332;9.860;2022-09-09T00:33:43;14.47;;;12.90;;
2522;SDS011;1272;53.332;9.860;2022-09-09T00:36:13;16.23;;;14.40;;
2522;SDS011;1272;53.332;9.860;2022-09-09T00:38:48;14.17;;;12.67;;
2522;SDS011;1272;53.332;9.860;2022-09-09T00:41:19;18.27;;;14.30;;
2522;SDS011;1272;53.332;9.860;2022-09-09T00:43:55;14.00;;;12.60;;
2522;SDS011;1272;53.332;9.860;2022-09-09T00:58:06;12.53;;;11.03;;
2522;SDS011;1272;53.332;9.860;2022-09-09T01:00:42;13.00;;;11.60;;
2522;SDS011;1272;53.332;9.860;2022-09-09T01:03:18;12.73;;;11.43;;
2522;SDS011;1272;53.332;9.860;2022-09-09T01:11:22;11.33;;;10.33;;
2522;SDS011;1272;53.332;9.860;2022-09-09T01:14:11;12.40;;;11.10;;
2522;SDS011;1272;53.332;9.860;2022-09-09T01:16:56;11.90;;;10.80;;
2522;SDS011;1272;53.332;9.860;2022-09-09T01:20:02;12.03;;;10.83;;
2522;SDS011;1272;53.332;9.860;2022-09-09T01:27:42;11.60;;;10.50;;
2522;SDS011;1272;53.332;9.860;2022-09-09T01:30:11;12.23;;;10.90;;
2522;SDS011;1272;53.332;9.860;2022-09-09T01:32:44;11.37;;;10.23;;
2522;SDS011;1272;53.332;9.860;2022-09-09T01:35:19;11.77;;;10.47;;
2522;SDS011;1272;53.332;9.860;2022-09-09T01:37:50;11.63;;;10.40;;
2522;SDS011;1272;53.332;9.860;2022-09-09T01:40:16;12.60;;;11.30;;
2522;SDS011;1272;53.332;9.860;2022-09-09T01:42:42;11.67;;;10.57;;
2522;SDS011;1272;53.332;9.860;2022-09-09T01:45:08;11.13;;;10.10;;
2522;SDS011;1272;53.332;9.860;2022-09-09T01:47:34;11.53;;;10.33;;
2522;SDS011;1272;53.332;9.860;2022-09-09T01:50:01;11.73;;;10.57;;
2522;SDS011;1272;53.332;9.860;2022-09-09T01:52:28;11.70;;;10.57;;
2522;SDS011;1272;53.332;9.860;2022-09-09T01:54:54;11.57;;;10.47;;
2522;SDS011;1272;53.332;9.860;2022-09-09T01:57:23;10.80;;;9.80;;
2522;SDS011;1272;53.332;9.860;2022-09-09T02:00:06;12.03;;;10.83;;
2522;SDS011;1272;53.332;9.860;2022-09-09T02:02:39;12.17;;;11.07;;
2522;SDS011;1272;53.332;9.860;2022-09-09T02:07:53;12.00;;;10.67;;
2522;SDS011;1272;53.332;9.860;2022-09-09T02:10:30;10.30;;;9.33;;
2522;SDS011;1272;53.332;9.860;2022-09-09T02:13:19;11.10;;;10.00;;
2522;SDS011;1272;53.332;9.860;2022-09-09T02:15:51;11.53;;;10.40;;
2522;SDS011;1272;53.332;9.860;2022-09-09T02:18:19;13.20;;;10.80;;
2522;SDS011;1272;53.332;9.860;2022-09-09T02:20:50;12.60;;;11.40;;
2522;SDS011;1272;53.332;9.860;2022-09-09T02:23:17;13.40;;;10.37;;
2522;SDS011;1272;53.332;9.860;2022-09-09T02:25:43;10.30;;;9.30;;
2522;SDS011;1272;53.332;9.860;2022-09-09T02:28:11;13.73;;;11.17;;
2522;SDS011;1272;53.332;9.860;2022-09-09T02:30:39;12.07;;;10.90;;
2522;SDS011;1272;53.332;9.860;2022-09-09T02:33:07;12.07;;;10.87;;
2522;SDS011;1272;53.332;9.860;2022-09-09T02:35:35;11.60;;;10.40;;
2522;SDS011;1272;53.332;9.860;2022-09-09T02:38:04;12.13;;;10.83;;
2522;SDS011;1272;53.332;9.860;2022-09-09T02:40:34;11.47;;;10.40;;
2522;SDS011;1272;53.332;9.860;2022-09-09T02:42:59;11.17;;;10.00;;
2522;SDS011;1272;53.332;9.860;2022-09-09T02:45:26;10.53;;;9.60;;
2522;SDS011;1272;53.332;9.860;2022-09-09T02:50:33;12.30;;;11.00;;
2522;SDS011;1272;53.332;9.860;2022-09-09T02:53:08;12.30;;;10.37;;
2522;SDS011;1272;53.332;9.860;2022-09-09T02:55:48;10.67;;;9.03;;
2522;SDS011;1272;53.332;9.860;2022-09-09T02:58:17;11.37;;;10.30;;
2522;SDS011;1272;53.332;9.860;2022-09-09T03:00:46;12.37;;;11.13;;
2522;SDS011;1272;53.332;9.860;2022-09-09T03:03:14;10.57;;;9.47;;
2522;SDS011;1272;53.332;9.860;2022-09-09T03:05:41;9.93;;;9.03;;
2522;SDS011;1272;53.332;9.860;2022-09-09T03:08:07;12.43;;;11.13;;
2522;SDS011;1272;53.332;9.860;2022-09-09T03:10:34;11.90;;;10.70;;
2522;SDS011;1272;53.332;9.860;2022-09-09T03:13:00;10.03;;;9.00;;
2522;SDS011;1272;53.332;9.860;2022-09-09T03:15:26;9.20;;;8.30;;
2522;SDS011;1272;53.332;9.860;2022-09-09T03:17:55;9.90;;;8.87;;
2522;SDS011;1272;53.332;9.860;2022-09-09T03:20:22;10.30;;;9.40;;
2522;SDS011;1272;53.332;9.860;2022-09-09T03:22:52;10.53;;;9.10;;
2522;SDS011;1272;53.332;9.860;2022-09-09T03:25:18;11.27;;;10.10;;
2522;SDS011;1272;53.332;9.860;2022-09-09T03:27:44;12.57;;;9.80;;
2522;SDS011;1272;53.332;9.860;2022-09-09T03:30:10;9.97;;;9.00;;
2522;SDS011;1272;53.332;9.860;2022-09-09T03:32:36;11.23;;;10.10;;
2522;SDS011;1272;53.332;9.860;2022-09-09T03:35:01;9.30;;;8.30;;
2522;SDS011;1272;53.332;9.860;2022-09-09T03:37:27;11.37;;;10.27;;
2522;SDS011;1272;53.332;9.860;2022-09-09T03:39:53;9.73;;;8.83;;
2522;SDS011;1272;53.332;9.860;2022-09-09T03:42:21;9.77;;;8.77;;
2522;SDS011;1272;53.332;9.860;2022-09-09T03:44:47;10.93;;;9.83;;
2522;SDS011;1272;53.332;9.860;2022-09-09T03:47:15;11.40;;;10.30;;
2522;SDS011;1272;53.332;9.860;2022-09-09T03:49:44;10.27;;;9.30;;
2522;SDS011;1272;53.332;9.860;2022-09-09T03:52:10;10.90;;;9.90;;
2522;SDS011;1272;53.332;9.860;2022-09-09T03:54:36;9.90;;;9.00;;
2522;SDS011;1272;53.332;9.860;2022-09-09T03:57:02;9.90;;;8.90;;
2522;SDS011;1272;53.332;9.860;2022-09-09T03:59:29;10.57;;;9.50;;
2522;SDS011;1272;53.332;9.860;2022-09-09T04:01:55;11.07;;;8.70;;
2522;SDS011;1272;53.332;9.860;2022-09-09T04:04:22;10.90;;;9.90;;
2522;SDS011;1272;53.332;9.860;2022-09-09T04:06:47;11.20;;;9.93;;
2522;SDS011;1272;53.332;9.860;2022-09-09T04:09:13;9.97;;;9.07;;
2522;SDS011;1272;53.332;9.860;2022-09-09T04:11:39;10.90;;;9.90;;
2522;SDS011;1272;53.332;9.860;2022-09-09T04:14:05;10.67;;;9.57;;
2522;SDS011;1272;53.332;9.860;2022-09-09T04:16:31;11.33;;;10.23;;
2522;SDS011;1272;53.332;9.860;2022-09-09T04:18:58;11.80;;;9.17;;
2522;SDS011;1272;53.332;9.860;2022-09-09T04:21:25;11.43;;;9.33;;
2522;SDS011;1272;53.332;9.860;2022-09-09T04:23:51;10.20;;;9.20;;
2522;SDS011;1272;53.332;9.860;2022-09-09T04:26:16;9.73;;;8.77;;
2522;SDS011;1272;53.332;9.860;2022-09-09T04:28:43;9.27;;;8.43;;
2522;SDS011;1272;53.332;9.860;2022-09-09T04:31:10;10.03;;;9.03;;
2522;SDS011;1272;53.332;9.860;2022-09-09T04:33:43;9.83;;;8.90;;
2522;SDS011;1272;53.332;9.860;2022-09-09T04:36:09;9.93;;;8.93;;
2522;SDS011;1272;53.332;9.860;2022-09-09T04:38:34;8.73;;;8.03;;
2522;SDS011;1272;53.332;9.860;2022-09-09T04:41:01;10.20;;;8.13;;
2522;SDS011;1272;53.332;9.860;2022-09-09T04:43:27;9.10;;;8.27;;
2522;SDS011;1272;53.332;9.860;2022-09-09T04:45:52;9.33;;;8.53;;
2522;SDS011;1272;53.332;9.860;2022-09-09T04:48:19;8.80;;;8.00;;
2522;SDS011;1272;53.332;9.860;2022-09-09T04:50:55;9.17;;;8.40;;
2522;SDS011;1272;53.332;9.860;2022-09-09T04:53:29;8.80;;;8.10;;
2522;SDS011;1272;53.332;9.860;2022-09-09T04:56:05;9.10;;;8.20;;
2522;SDS011;1272;53.332;9.860;2022-09-09T04:58:35;7.83;;;7.13;;
2522;SDS011;1272;53.332;9.860;2022-09-09T05:01:11;7.53;;;6.93;;
2522;SDS011;1272;53.332;9.860;2022-09-09T05:03:39;6.87;;;6.27;;
2522;SDS011;1272;53.332;9.860;2022-09-09T05:06:14;8.33;;;7.63;;
2522;SDS011;1272;53.332;9.860;2022-09-09T05:08:42;7.10;;;6.50;;
2522;SDS011;1272;53.332;9.860;2022-09-09T05:13:41;7.93;;;7.33;;
2522;SDS011;1272;53.332;9.860;2022-09-09T05:16:07;6.80;;;6.30;;
2522;SDS011;1272;53.332;9.860;2022-09-09T05:18:36;6.57;;;6.07;;
2522;SDS011;1272;53.332;9.860;2022-09-09T05:21:02;7.37;;;6.77;;
2522;SDS011;1272;53.332;9.860;2022-09-09T05:23:28;7.23;;;6.53;;
2522;SDS011;1272;53.332;9.860;2022-09-09T05:25:57;6.77;;;6.20;;
2522;SDS011;1272;53.332;9.860;2022-09-09T05:28:26;8.03;;;7.23;;
2522;SDS011;1272;53.332;9.860;2022-09-09T05:30:58;7.13;;;6.53;;
2522;SDS011;1272;53.332;9.860;2022-09-09T05:33:26;7.37;;;6.77;;
2522;SDS011;1272;53.332;9.860;2022-09-09T05:35:59;7.50;;;6.80;;
2522;SDS011;1272;53.332;9.860;2022-09-09T05:38:27;7.37;;;6.77;;
2522;SDS011;1272;53.332;9.860;2022-09-09T05:40:54;7.50;;;6.80;;
2522;SDS011;1272;53.332;9.860;2022-09-09T05:43:21;7.13;;;6.47;;
2522;SDS011;1272;53.332;9.860;2022-09-09T05:45:47;7.30;;;6.70;;
2522;SDS011;1272;53.332;9.860;2022-09-09T05:48:17;6.43;;;5.93;;
2522;SDS011;1272;53.332;9.860;2022-09-09T05:50:42;6.53;;;6.03;;
2522;SDS011;1272;53.332;9.860;2022-09-09T05:53:10;5.70;;;5.20;;
2522;SDS011;1272;53.332;9.860;2022-09-09T05:55:36;4.57;;;4.27;;
2522;SDS011;1272;53.332;9.860;2022-09-09T05:58:01;5.63;;;5.10;;
2522;SDS011;1272;53.332;9.860;2022-09-09T06:00:27;5.40;;;5.00;;
2522;SDS011;1272;53.332;9.860;2022-09-09T06:02:54;6.10;;;5.50;;
2522;SDS011;1272;53.332;9.860;2022-09-09T06:05:20;5.70;;;5.00;;
2522;SDS011;1272;53.332;9.860;2022-09-09T06:07:47;5.17;;;4.83;;
2522;SDS011;1272;53.332;9.860;2022-09-09T06:10:13;7.40;;;6.70;;
2522;SDS011;1272;53.332;9.860;2022-09-09T06:12:39;7.63;;;5.80;;
2522;SDS011;1272;53.332;9.860;2022-09-09T06:15:05;6.30;;;5.80;;
2522;SDS011;1272;53.332;9.860;2022-09-09T06:17:31;6.27;;;5.77;;
2522;SDS011;1272;53.332;9.860;2022-09-09T06:19:57;6.53;;;4.83;;
2522;SDS011;1272;53.332;9.860;2022-09-09T06:22:23;4.97;;;4.63;;
2522;SDS011;1272;53.332;9.860;2022-09-09T06:24:48;5.63;;;4.60;;
2522;SDS011;1272;53.332;9.860;2022-09-09T06:27:16;6.07;;;4.60;;
2522;SDS011;1272;53.332;9.860;2022-09-09T06:29:41;5.83;;;4.43;;
2522;SDS011;1272;53.332;9.860;2022-09-09T06:32:07;5.10;;;4.70;;
2522;SDS011;1272;53.332;9.860;2022-09-09T06:34:33;5.73;;;5.17;;
2522;SDS011;1272;53.332;9.860;2022-09-09T06:37:00;4.13;;;3.90;;
2522;SDS011;1272;53.332;9.860;2022-09-09T06:39:26;4.50;;;4.20;;
2522;SDS011;1272;53.332;9.860;2022-09-09T06:41:51;4.80;;;4.40;;
2522;SDS011;1272;53.332;9.860;2022-09-09T06:44:18;3.87;;;3.67;;
2522;SDS011;1272;53.332;9.860;2022-09-09T06:46:44;4.83;;;4.47;;
2522;SDS011;1272;53.332;9.860;2022-09-09T06:49:12;7.57;;;5.10;;
2522;SDS011;1272;53.332;9.860;2022-09-09T06:51:38;5.27;;;4.77;;
2522;SDS011;1272;53.332;9.860;2022-09-09T06:54:07;4.93;;;3.90;;
2522;SDS011;1272;53.332;9.860;2022-09-09T06:56:34;5.20;;;4.70;;
2522;SDS011;1272;53.332;9.860;2022-09-09T06:59:03;4.90;;;4.50;;
2522;SDS011;1272;53.332;9.860;2022-09-09T07:01:31;4.50;;;4.10;;
2522;SDS011;1272;53.332;9.860;2022-09-09T07:03:59;5.17;;;4.70;;
2522;SDS011;1272;53.332;9.860;2022-09-09T07:06:29;7.27;;;5.07;;
2522;SDS011;1272;53.332;9.860;2022-09-09T07:09:01;4.73;;;4.30;;
2522;SDS011;1272;53.332;9.860;2022-09-09T07:11:41;3.93;;;3.70;;
2522;SDS011;1272;53.332;9.860;2022-09-09T07:14:08;5.00;;;4.57;;
2522;SDS011;1272;53.332;9.860;2022-09-09T07:16:37;7.37;;;6.77;;
2522;SDS011;1272;53.332;9.860;2022-09-09T07:19:04;8.33;;;5.70;;
2522;SDS011;1272;53.332;9.860;2022-09-09T07:21:30;6.90;;;5.00;;
2522;SDS011;1272;53.332;9.860;2022-09-09T07:23:57;7.13;;;5.53;;
2522;SDS011;1272;53.332;9.860;2022-09-09T07:26:24;7.70;;;4.87;;
2522;SDS011;1272;53.332;9.860;2022-09-09T07:28:51;5.17;;;4.67;;
2522;SDS011;1272;53.332;9.860;2022-09-09T07:31:20;4.20;;;3.80;;
2522;SDS011;1272;53.332;9.860;2022-09-09T07:33:47;4.83;;;4.30;;
2522;SDS011;1272;53.332;9.860;2022-09-09T07:38:51;4.00;;;3.70;;
2522;SDS011;1272;53.332;9.860;2022-09-09T07:41:19;8.47;;;5.07;;
2522;SDS011;1272;53.332;9.860;2022-09-09T07:43:48;4.33;;;4.13;;
2522;SDS011;1272;53.332;9.860;2022-09-09T07:46:15;6.43;;;5.10;;
2522;SDS011;1272;53.332;9.860;2022-09-09T07:48:44;4.57;;;4.23;;
2522;SDS011;1272;53.332;9.860;2022-09-09T07:51:15;4.90;;;4.13;;
2522;SDS011;1272;53.332;9.860;2022-09-09T07:53:45;3.73;;;3.40;;
2522;SDS011;1272;53.332;9.860;2022-09-09T07:56:13;4.70;;;3.47;;
2522;SDS011;1272;53.332;9.860;2022-09-09T07:58:42;3.60;;;3.40;;
2522;SDS011;1272;53.332;9.860;2022-09-09T08:01:20;3.70;;;3.20;;
2522;SDS011;1272;53.332;9.860;2022-09-09T08:03:46;2.53;;;2.43;;
2522;SDS011;1272;53.332;9.860;2022-09-09T08:06:17;3.13;;;2.80;;
2522;SDS011;1272;53.332;9.860;2022-09-09T08:08:43;2.97;;;2.77;;
2522;SDS011;1272;53.332;9.860;2022-09-09T08:11:10;4.70;;;3.00;;
2522;SDS011;1272;53.332;9.860;2022-09-09T08:13:39;2.70;;;2.50;;
2522;SDS011;1272;53.332;9.860;2022-09-09T08:16:06;4.40;;;3.53;;
2522;SDS011;1272;53.332;9.860;2022-09-09T08:18:35;2.80;;;2.33;;
2522;SDS011;1272;53.332;9.860;2022-09-09T08:21:11;4.53;;;3.30;;
2522;SDS011;1272;53.332;9.860;2022-09-09T08:23:39;4.10;;;3.00;;
2522;SDS011;1272;53.332;9.860;2022-09-09T08:26:07;3.73;;;2.73;;
2522;SDS011;1272;53.332;9.860;2022-09-09T08:28:37;5.63;;;2.90;;
2522;SDS011;1272;53.332;9.860;2022-09-09T08:31:05;3.10;;;3.00;;
2522;SDS011;1272;53.332;9.860;2022-09-09T08:33:39;2.87;;;2.70;;
2522;SDS011;1272;53.332;9.860;2022-09-09T08:36:06;2.90;;;2.60;;
2522;SDS011;1272;53.332;9.860;2022-09-09T08:38:35;5.20;;;3.20;;
2522;SDS011;1272;53.332;9.860;2022-09-09T08:41:04;2.40;;;2.23;;
2522;SDS011;1272;53.332;9.860;2022-09-09T08:43:32;3.43;;;3.20;;
2522;SDS011;1272;53.332;9.860;2022-09-09T08:46:20;3.33;;;3.10;;
2522;SDS011;1272;53.332;9.860;2022-09-09T08:51:39;3.00;;;2.27;;
2522;SDS011;1272;53.332;9.860;2022-09-09T08:54:04;3.93;;;2.63;;
2522;SDS011;1272;53.332;9.860;2022-09-09T08:56:31;3.30;;;3.10;;
2522;SDS011;1272;53.332;9.860;2022-09-09T08:58:59;3.73;;;1.87;;
2522;SDS011;1272;53.332;9.860;2022-09-09T09:07:14;3.20;;;2.53;;
2522;SDS011;1272;53.332;9.860;2022-09-09T09:12:40;3.57;;;2.03;;
2522;SDS011;1272;53.332;9.860;2022-09-09T09:15:14;1.90;;;1.80;;
2522;SDS011;1272;53.332;9.860;2022-09-09T09:17:48;3.00;;;1.90;;
2522;SDS011;1272;53.332;9.860;2022-09-09T09:20:15;1.77;;;1.67;;
2522;SDS011;1272;53.332;9.860;2022-09-09T09:22:45;2.50;;;1.97;;
2522;SDS011;1272;53.332;9.860;2022-09-09T09:36:18;3.90;;;1.60;;
2522;SDS011;1272;53.332;9.860;2022-09-09T09:39:21;3.33;;;1.40;;
2522;SDS011;1272;53.332;9.860;2022-09-09T09:41:46;1.70;;;1.60;;
2522;SDS011;1272;53.332;9.860;2022-09-09T09:44:26;1.70;;;1.60;;
2522;SDS011;1272;53.332;9.860;2022-09-09T09:46:52;2.20;;;1.50;;
2522;SDS011;1272;53.332;9.860;2022-09-09T09:49:18;2.60;;;1.30;;
2522;SDS011;1272;53.332;9.860;2022-09-09T09:51:44;1.80;;;1.17;;
2522;SDS011;1272;53.332;9.860;2022-09-09T09:54:24;1.60;;;1.50;;
2522;SDS011;1272;53.332;9.860;2022-09-09T09:56:53;1.57;;;1.43;;
2522;SDS011;1272;53.332;9.860;2022-09-09T09:59:20;2.50;;;1.77;;
2522;SDS011;1272;53.332;9.860;2022-09-09T10:01:52;1.60;;;1.50;;
2522;SDS011;1272;53.332;9.860;2022-09-09T10:04:21;2.77;;;1.67;;
2522;SDS011;1272;53.332;9.860;2022-09-09T10:06:48;2.20;;;1.87;;
2522;SDS011;1272;53.332;9.860;2022-09-09T10:09:20;3.07;;;1.77;;
2522;SDS011;1272;53.332;9.860;2022-09-09T10:23:10;2.23;;;2.07;;
2522;SDS011;1272;53.332;9.860;2022-09-09T10:26:01;1.60;;;1.50;;
2522;SDS011;1272;53.332;9.860;2022-09-09T10:31:34;3.00;;;1.83;;
2522;SDS011;1272;53.332;9.860;2022-09-09T10:37:00;2.80;;;1.70;;
2522;SDS011;1272;53.332;9.860;2022-09-09T10:39:39;2.53;;;1.47;;
2522;SDS011;1272;53.332;9.860;2022-09-09T10:42:14;2.10;;;1.90;;
2522;SDS011;1272;53.332;9.860;2022-09-09T10:53:11;1.60;;;1.50;;
2522;SDS011;1272;53.332;9.860;2022-09-09T10:56:00;2.87;;;1.80;;
2522;SDS011;1272;53.332;9.860;2022-09-09T10:58:40;3.17;;;1.40;;
2522;SDS011;1272;53.332;9.860;2022-09-09T11:01:25;1.53;;;1.43;;
2522;SDS011;1272;53.332;9.860;2022-09-09T11:04:09;1.60;;;1.37;;
2522;SDS011;1272;53.332;9.860;2022-09-09T11:06:48;2.90;;;1.27;;
2522;SDS011;1272;53.332;9.860;2022-09-09T11:09:20;1.37;;;1.27;;
2522;SDS011;1272;53.332;9.860;2022-09-09T11:11:53;1.60;;;1.50;;
2522;SDS011;1272;53.332;9.860;2022-09-09T11:17:22;2.90;;;1.20;;
2522;SDS011;1272;53.332;9.860;2022-09-09T11:19:55;1.30;;;1.20;;
2522;SDS011;1272;53.332;9.860;2022-09-09T11:26:01;1.83;;;1.30;;
2522;SDS011;1272;53.332;9.860;2022-09-09T11:28:09;2.83;;;1.67;;
2522;SDS011;1272;53.332;9.860;2022-09-09T11:44:39;2.37;;;1.23;;
2522;SDS011;1272;53.332;9.860;2022-09-09T11:47:19;4.03;;;1.77;;
2522;SDS011;1272;53.332;9.860;2022-09-09T11:49:46;5.53;;;1.40;;
2522;SDS011;1272;53.332;9.860;2022-09-09T11:52:23;1.93;;;1.30;;
2522;SDS011;1272;53.332;9.860;2022-09-09T11:55:00;1.93;;;1.07;;
2522;SDS011;1272;53.332;9.860;2022-09-09T11:58:27;3.03;;;1.23;;
2522;SDS011;1272;53.332;9.860;2022-09-09T12:00:47;1.27;;;1.17;;
2522;SDS011;1272;53.332;9.860;2022-09-09T12:06:09;1.87;;;1.40;;
2522;SDS011;1272;53.332;9.860;2022-09-09T12:08:39;1.43;;;1.33;;
2522;SDS011;1272;53.332;9.860;2022-09-09T12:11:22;3.80;;;2.03;;
2522;SDS011;1272;53.332;9.860;2022-09-09T12:13:57;2.13;;;1.50;;
2522;SDS011;1272;53.332;9.860;2022-09-09T12:16:35;2.03;;;1.60;;
2522;SDS011;1272;53.332;9.860;2022-09-09T12:19:24;1.70;;;1.53;;
2522;SDS011;1272;53.332;9.860;2022-09-09T12:21:58;4.43;;;1.67;;
2522;SDS011;1272;53.332;9.860;2022-09-09T12:24:35;1.60;;;1.50;;
2522;SDS011;1272;53.332;9.860;2022-09-09T12:30:04;2.80;;;1.90;;
2522;SDS011;1272;53.332;9.860;2022-09-09T12:32:29;6.50;;;2.10;;
2522;SDS011;1272;53.332;9.860;2022-09-09T12:40:18;8.40;;;3.80;;
2522;SDS011;1272;53.332;9.860;2022-09-09T12:42:46;7.93;;;3.23;;
2522;SDS011;1272;53.332;9.860;2022-09-09T12:45:16;8.10;;;3.90;;
2522;SDS011;1272;53.332;9.860;2022-09-09T12:47:53;3.93;;;3.43;;
2522;SDS011;1272;53.332;9.860;2022-09-09T12:52:50;4.90;;;2.90;;
2522;SDS011;1272;53.332;9.860;2022-09-09T12:55:20;3.27;;;3.03;;
2522;SDS011;1272;53.332;9.860;2022-09-09T12:57:50;3.03;;;2.90;;
2522;SDS011;1272;53.332;9.860;2022-09-09T13:00:21;4.97;;;3.10;;
2522;SDS011;1272;53.332;9.860;2022-09-09T13:02:49;6.00;;;3.17;;
2522;SDS011;1272;53.332;9.860;2022-09-09T13:05:24;4.10;;;3.13;;
2522;SDS011;1272;53.332;9.860;2022-09-09T13:08:04;7.10;;;3.40;;
2522;SDS011;1272;53.332;9.860;2022-09-09T13:10:56;5.33;;;2.70;;
2522;SDS011;1272;53.332;9.860;2022-09-09T13:13:39;2.87;;;2.60;;
2522;SDS011;1272;53.332;9.860;2022-09-09T13:16:17;2.50;;;2.40;;
2522;SDS011;1272;53.332;9.860;2022-09-09T13:18:56;2.20;;;2.00;;
2522;SDS011;1272;53.332;9.860;2022-09-09T13:21:37;3.73;;;2.23;;
2522;SDS011;1272;53.332;9.860;2022-09-09T13:24:21;2.67;;;2.40;;
2522;SDS011;1272;53.332;9.860;2022-09-09T13:27:02;2.23;;;2.07;;
2522;SDS011;1272;53.332;9.860;2022-09-09T13:29:30;2.90;;;2.33;;
2522;SDS011;1272;53.332;9.860;2022-09-09T13:32:04;1.80;;;1.70;;
2522;SDS011;1272;53.332;9.860;2022-09-09T13:34:32;1.90;;;1.80;;
2522;SDS011;1272;53.332;9.860;2022-09-09T13:37:01;1.97;;;1.87;;
2522;SDS011;1272;53.332;9.860;2022-09-09T13:39:30;2.53;;;2.33;;
2522;SDS011;1272;53.332;9.860;2022-09-09T13:42:01;2.20;;;1.93;;
2522;SDS011;1272;53.332;9.860;2022-09-09T13:44:35;2.83;;;2.10;;
2522;SDS011;1272;53.332;9.860;2022-09-09T13:49:31;3.13;;;2.60;;
2522;SDS011;1272;53.332;9.860;2022-09-09T13:52:06;3.37;;;2.33;;
2522;SDS011;1272;53.332;9.860;2022-09-09T13:54:36;2.40;;;1.93;;
2522;SDS011;1272;53.332;9.860;2022-09-09T13:57:01;2.60;;;2.40;;
2522;SDS011;1272;53.332;9.860;2022-09-09T13:59:29;2.60;;;2.17;;
2522;SDS011;1272;53.332;9.860;2022-09-09T14:01:55;2.03;;;1.90;;
2522;SDS011;1272;53.332;9.860;2022-09-09T14:04:21;2.40;;;1.70;;
2522;SDS011;1272;53.332;9.860;2022-09-09T14:06:47;2.03;;;1.67;;
2522;SDS011;1272;53.332;9.860;2022-09-09T14:09:14;3.10;;;1.97;;
2522;SDS011;1272;53.332;9.860;2022-09-09T14:11:41;2.10;;;1.63;;
2522;SDS011;1272;53.332;9.860;2022-09-09T14:14:08;2.00;;;1.90;;
2522;SDS011;1272;53.332;9.860;2022-09-09T14:16:33;2.80;;;2.13;;
2522;SDS011;1272;53.332;9.860;2022-09-09T14:18:59;2.43;;;2.23;;
2522;SDS011;1272;53.332;9.860;2022-09-09T14:21:26;2.60;;;1.80;;
2522;SDS011;1272;53.332;9.860;2022-09-09T14:23:53;4.53;;;2.40;;
2522;SDS011;1272;53.332;9.860;2022-09-09T14:26:19;3.27;;;2.40;;
2522;SDS011;1272;53.332;9.860;2022-09-09T14:28:46;2.40;;;2.30;;
2522;SDS011;1272;53.332;9.860;2022-09-09T14:31:13;4.30;;;2.03;;
2522;SDS011;1272;53.332;9.860;2022-09-09T14:33:39;2.80;;;2.10;;
2522;SDS011;1272;53.332;9.860;2022-09-09T14:36:05;2.10;;;2.00;;
2522;SDS011;1272;53.332;9.860;2022-09-09T14:38:35;1.90;;;1.80;;
2522;SDS011;1272;53.332;9.860;2022-09-09T14:41:07;2.90;;;1.90;;
2522;SDS011;1272;53.332;9.860;2022-09-09T14:43:39;2.07;;;1.87;;
2522;SDS011;1272;53.332;9.860;2022-09-09T14:46:05;3.53;;;2.40;;
2522;SDS011;1272;53.332;9.860;2022-09-09T14:48:32;1.63;;;1.53;;
2522;SDS011;1272;53.332;9.860;2022-09-09T14:51:04;4.57;;;2.30;;
2522;SDS011;1272;53.332;9.860;2022-09-09T14:53:31;2.20;;;2.10;;
2522;SDS011;1272;53.332;9.860;2022-09-09T14:56:04;2.90;;;2.27;;
2522;SDS011;1272;53.332;9.860;2022-09-09T14:58:34;3.33;;;1.93;;
2522;SDS011;1272;53.332;9.860;2022-09-09T15:01:07;2.57;;;2.47;;
2522;SDS011;1272;53.332;9.860;2022-09-09T15:03:35;2.70;;;2.20;;
2522;SDS011;1272;53.332;9.860;2022-09-09T15:06:09;4.10;;;2.40;;
2522;SDS011;1272;53.332;9.860;2022-09-09T15:08:37;2.40;;;2.30;;
2522;SDS011;1272;53.332;9.860;2022-09-09T15:11:04;5.20;;;3.00;;
2522;SDS011;1272;53.332;9.860;2022-09-09T15:13:32;4.53;;;2.07;;
2522;SDS011;1272;53.332;9.860;2022-09-09T15:16:05;2.37;;;2.27;;
2522;SDS011;1272;53.332;9.860;2022-09-09T15:18:35;2.40;;;2.20;;
2522;SDS011;1272;53.332;9.860;2022-09-09T15:21:02;4.00;;;1.93;;
2522;SDS011;1272;53.332;9.860;2022-09-09T15:23:33;2.30;;;2.07;;
2522;SDS011;1272;53.332;9.860;2022-09-09T15:25:59;4.03;;;2.53;;
2522;SDS011;1272;53.332;9.860;2022-09-09T15:28:25;2.20;;;2.10;;
2522;SDS011;1272;53.332;9.860;2022-09-09T15:30:52;1.93;;;1.83;;
2522;SDS011;1272;53.332;9.860;2022-09-09T15:33:19;2.00;;;1.77;;
2522;SDS011;1272;53.332;9.860;2022-09-09T15:35:45;2.03;;;1.90;;
2522;SDS011;1272;53.332;9.860;2022-09-09T15:38:11;1.53;;;1.43;;
2522;SDS011;1272;53.332;9.860;2022-09-09T15:40:38;1.30;;;1.20;;
2522;SDS011;1272;53.332;9.860;2022-09-09T15:43:05;1.70;;;1.60;;
2522;SDS011;1272;53.332;9.860;2022-09-09T15:45:31;2.27;;;2.07;;
2522;SDS011;1272;53.332;9.860;2022-09-09T15:47:58;2.33;;;2.23;;
2522;SDS011;1272;53.332;9.860;2022-09-09T15:50:25;2.63;;;2.20;;
2522;SDS011;1272;53.332;9.860;2022-09-09T15:52:51;2.63;;;2.10;;
2522;SDS011;1272;53.332;9.860;2022-09-09T15:55:18;2.27;;;2.07;;
2522;SDS011;1272;53.332;9.860;2022-09-09T15:57:45;2.80;;;2.30;;
2522;SDS011;1272;53.332;9.860;2022-09-09T16:00:11;3.03;;;2.80;;
2522;SDS011;1272;53.332;9.860;2022-09-09T16:02:38;5.93;;;4.33;;
2522;SDS011;1272;53.332;9.860;2022-09-09T16:05:04;2.37;;;2.10;;
2522;SDS011;1272;53.332;9.860;2022-09-09T16:07:30;3.23;;;1.77;;
2522;SDS011;1272;53.332;9.860;2022-09-09T16:09:57;2.00;;;1.80;;
2522;SDS011;1272;53.332;9.860;2022-09-09T16:12:22;1.87;;;1.57;;
2522;SDS011;1272;53.332;9.860;2022-09-09T16:14:48;1.77;;;1.60;;
2522;SDS011;1272;53.332;9.860;2022-09-09T16:17:15;1.83;;;1.60;;
2522;SDS011;1272;53.332;9.860;2022-09-09T16:19:41;3.07;;;1.37;;
2522;SDS011;1272;53.332;9.860;2022-09-09T16:22:06;1.70;;;1.60;;
2522;SDS011;1272;53.332;9.860;2022-09-09T16:24:33;3.10;;;1.67;;
2522;SDS011;1272;53.332;9.860;2022-09-09T16:26:58;2.70;;;2.30;;
2522;SDS011;1272;53.332;9.860;2022-09-09T16:29:24;1.90;;;1.80;;
2522;SDS011;1272;53.332;9.860;2022-09-09T16:31:52;1.90;;;1.30;;
2522;SDS011;1272;53.332;9.860;2022-09-09T16:34:18;2.30;;;1.77;;
2522;SDS011;1272;53.332;9.860;2022-09-09T16:36:45;1.60;;;1.50;;
2522;SDS011;1272;53.332;9.860;2022-09-09T16:39:16;2.67;;;1.80;;
2522;SDS011;1272;53.332;9.860;2022-09-09T16:41:43;1.70;;;1.60;;
2522;SDS011;1272;53.332;9.860;2022-09-09T16:44:11;3.33;;;1.87;;
2522;SDS011;1272;53.332;9.860;2022-09-09T16:46:38;2.53;;;2.30;;
2522;SDS011;1272;53.332;9.860;2022-09-09T16:49:07;2.50;;;1.70;;
2522;SDS011;1272;53.332;9.860;2022-09-09T16:51:36;2.90;;;1.87;;
2522;SDS011;1272;53.332;9.860;2022-09-09T16:54:10;3.43;;;2.07;;
2522;SDS011;1272;53.332;9.860;2022-09-09T16:56:38;1.70;;;1.60;;
2522;SDS011;1272;53.332;9.860;2022-09-09T16:59:09;1.83;;;1.73;;
2522;SDS011;1272;53.332;9.860;2022-09-09T17:01:38;2.60;;;1.70;;
2522;SDS011;1272;53.332;9.860;2022-09-09T17:04:10;3.87;;;1.87;;
2522;SDS011;1272;53.332;9.860;2022-09-09T17:06:46;1.80;;;1.70;;
2522;SDS011;1272;53.332;9.860;2022-09-09T17:09:14;2.00;;;1.90;;
2522;SDS011;1272;53.332;9.860;2022-09-09T17:11:40;2.20;;;1.80;;
2522;SDS011;1272;53.332;9.860;2022-09-09T17:14:10;2.00;;;1.90;;
2522;SDS011;1272;53.332;9.860;2022-09-09T17:16:39;2.50;;;2.30;;
2522;SDS011;1272;53.332;9.860;2022-09-09T17:19:05;2.20;;;2.10;;
2522;SDS011;1272;53.332;9.860;2022-09-09T17:21:33;3.27;;;2.97;;
2522;SDS011;1272;53.332;9.860;2022-09-09T17:23:59;2.40;;;2.20;;
2522;SDS011;1272;53.332;9.860;2022-09-09T17:26:26;3.27;;;2.93;;
2522;SDS011;1272;53.332;9.860;2022-09-09T17:28:54;2.87;;;2.67;;
2522;SDS011;1272;53.332;9.860;2022-09-09T17:31:22;2.90;;;2.70;;
2522;SDS011;1272;53.332;9.860;2022-09-09T17:33:50;4.97;;;2.83;;
2522;SDS011;1272;53.332;9.860;2022-09-09T17:36:18;2.40;;;2.20;;
2522;SDS011;1272;53.332;9.860;2022-09-09T17:38:47;2.47;;;2.27;;